Time;durP1;ratioP1;P1;durP2;ratioP2;P2;SDS_P1;SDS_P2;PMS_P1;PMS_P2;Temp;Humidity;BMP_temperature;BMP_pressure;BME280_temperature;BME280_humidity;BME280_pressure;Samples;Min_cycle;Max_cycle;Signal;HPM_P1;HPM_P2
2023/03/27 00:00:44;;;;;;;7.35;0.80;;;6.00;99.90;;;;;;5158927;27;20038;-72
2023/03/27 00:03:12;;;;;;;3.40;0.45;;;6.10;99.90;;;;;;5140560;27;20327;-72
2023/03/27 00:05:39;;;;;;;5.20;0.73;;;6.10;99.90;;;;;;5158832;27;20033;-72
2023/03/27 00:08:08;;;;;;;7.65;0.80;;;6.20;99.90;;;;;;5158819;27;20083;-72
2023/03/27 00:10:35;;;;;;;10.65;0.70;;;6.30;99.90;;;;;;5140164;27;20078;-72
2023/03/27 00:13:02;;;;;;;8.05;0.85;;;6.40;99.90;;;;;;5158655;27;20031;-72
2023/03/27 00:15:32;;;;;;;6.07;0.60;;;6.40;99.90;;;;;;5158685;27;20042;-72
2023/03/27 00:17:57;;;;;;;8.55;1.05;;;6.40;99.90;;;;;;5158369;27;20034;-72
2023/03/27 00:20:25;;;;;;;8.18;0.85;;;6.50;99.90;;;;;;5157921;27;20114;-73
2023/03/27 00:22:55;;;;;;;8.32;1.05;;;6.40;99.90;;;;;;5158620;27;20030;-72
2023/03/27 00:25:23;;;;;;;9.35;1.05;;;6.50;99.90;;;;;;5158586;27;20048;-72
2023/03/27 00:27:50;;;;;;;5.80;0.88;;;6.40;99.90;;;;;;5158280;27;20507;-72
2023/03/27 00:30:16;;;;;;;8.02;0.75;;;6.30;99.90;;;;;;5158537;27;20042;-72
2023/03/27 00:32:42;;;;;;;11.88;0.82;;;6.30;99.90;;;;;;5158532;27;20039;-72
2023/03/27 00:35:08;;;;;;;9.55;0.82;;;6.30;99.90;;;;;;5158381;27;20046;-72
2023/03/27 00:37:38;;;;;;;7.35;1.27;;;6.20;99.90;;;;;;5158499;27;20091;-72
2023/03/27 00:40:06;;;;;;;12.73;1.02;;;6.10;99.90;;;;;;5158366;27;20039;-72
2023/03/27 00:42:33;;;;;;;7.22;0.85;;;6.00;99.90;;;;;;5158114;27;20042;-72
2023/03/27 00:45:00;;;;;;;20.33;1.30;;;6.00;99.90;;;;;;5158082;27;20038;-73
2023/03/27 00:47:37;;;;;;;10.45;1.10;;;6.00;99.90;;;;;;5158126;27;20117;-72
2023/03/27 00:50:13;;;;;;;9.73;1.45;;;5.90;99.90;;;;;;5158358;27;20038;-72
2023/03/27 00:52:41;;;;;;;8.90;1.17;;;5.80;99.90;;;;;;5158011;27;20026;-72
2023/03/27 00:55:13;;;;;;;12.95;1.00;;;5.80;99.90;;;;;;5161247;27;20047;-72
2023/03/27 00:57:41;;;;;;;10.80;1.02;;;5.80;99.90;;;;;;5162250;27;20344;-72
2023/03/27 01:00:12;;;;;;;12.98;1.25;;;5.90;99.90;;;;;;5162430;27;20050;-72
2023/03/27 01:02:43;;;;;;;4.40;0.90;;;5.90;99.90;;;;;;5162433;27;20117;-72
2023/03/27 01:05:10;;;;;;;10.52;1.15;;;5.90;99.90;;;;;;5162017;27;20054;-72
2023/03/27 01:07:38;;;;;;;7.28;1.00;;;5.90;99.90;;;;;;5161950;27;20068;-72
2023/03/27 01:10:06;;;;;;;7.53;0.98;;;5.80;99.90;;;;;;5162205;27;20122;-72
2023/03/27 01:13:09;;;;;;;12.27;0.88;;;5.80;99.90;;;;;;5162178;27;20193;-72
2023/03/27 01:15:41;;;;;;;7.50;0.93;;;5.80;99.90;;;;;;5162132;27;20050;-72
2023/03/27 01:18:21;;;;;;;9.02;0.90;;;5.70;99.90;;;;;;5162066;27;20076;-73
2023/03/27 01:21:22;;;;;;;8.27;0.73;;;5.60;99.90;;;;;;5161637;27;20091;-72
2023/03/27 01:24:15;;;;;;;11.35;2.38;;;5.50;99.90;;;;;;5126202;27;20043;-72
2023/03/27 01:26:57;;;;;;;8.52;1.02;;;5.40;99.90;;;;;;5161610;27;20046;-72
2023/03/27 01:29:45;;;;;;;6.57;1.10;;;5.30;99.90;;;;;;5161756;27;20088;-72
2023/03/27 01:32:35;;;;;;;6.63;0.73;;;5.50;99.90;;;;;;5161503;27;20038;-73
2023/03/27 01:35:24;;;;;;;10.63;1.30;;;5.50;99.90;;;;;;5143883;27;20121;-72
2023/03/27 01:38:08;;;;;;;8.07;1.23;;;5.50;99.90;;;;;;5160874;27;20049;-72
2023/03/27 01:40:57;;;;;;;6.57;1.15;;;5.50;99.90;;;;;;5161594;27;20447;-72
2023/03/27 01:44:03;;;;;;;4.55;0.63;;;5.60;99.90;;;;;;5161257;27;20457;-72
2023/03/27 01:46:34;;;;;;;6.53;0.68;;;5.50;99.90;;;;;;5161573;27;20126;-72
2023/03/27 01:49:31;;;;;;;9.50;0.95;;;5.60;99.90;;;;;;5143004;27;20035;-72
2023/03/27 01:52:05;;;;;;;7.30;0.77;;;5.60;99.90;;;;;;5140357;27;20050;-73
2023/03/27 01:54:37;;;;;;;11.32;0.70;;;5.60;99.90;;;;;;5161016;27;20196;-73
2023/03/27 01:57:15;;;;;;;14.63;1.40;;;5.70;99.90;;;;;;5161324;27;20441;-73
2023/03/27 01:59:44;;;;;;;6.13;0.77;;;5.60;99.90;;;;;;5161398;27;20035;-72
2023/03/27 02:02:24;;;;;;;9.10;1.17;;;5.60;99.90;;;;;;5161167;27;20039;-72
2023/03/27 02:04:57;;;;;;;6.18;0.98;;;5.60;99.90;;;;;;5142163;27;20042;-72
2023/03/27 02:07:31;;;;;;;6.00;0.60;;;5.50;99.90;;;;;;5160456;27;20042;-72
2023/03/27 02:10:02;;;;;;;6.28;0.90;;;5.60;99.90;;;;;;5160842;27;20446;-72
2023/03/27 02:12:39;;;;;;;10.18;1.50;;;5.60;99.90;;;;;;5142807;27;20057;-72
2023/03/27 02:15:25;;;;;;;5.80;1.08;;;5.60;99.90;;;;;;5160604;27;20039;-72
2023/03/27 02:18:08;;;;;;;9.77;1.08;;;5.60;99.90;;;;;;5160926;27;20046;-73
2023/03/27 02:20:36;;;;;;;5.45;1.10;;;5.60;99.90;;;;;;5141906;27;20046;-73
2023/03/27 02:23:03;;;;;;;11.20;0.80;;;5.60;99.90;;;;;;5160861;27;20433;-72
2023/03/27 02:25:35;;;;;;;9.07;1.00;;;5.60;99.90;;;;;;5160718;27;20041;-72
2023/03/27 02:28:22;;;;;;;7.63;1.08;;;5.50;99.90;;;;;;5160706;27;20381;-72
2023/03/27 02:31:06;;;;;;;4.47;1.27;;;5.50;99.90;;;;;;5160694;27;20045;-72
2023/03/27 02:33:41;;;;;;;8.30;1.23;;;5.30;99.90;;;;;;5160523;27;20045;-72
2023/03/27 02:36:20;;;;;;;9.45;1.50;;;5.30;99.90;;;;;;5160500;27;20060;-72
2023/03/27 02:39:18;;;;;;;8.45;1.10;;;5.40;99.90;;;;;;5160516;27;20041;-72
2023/03/27 02:41:50;;;;;;;11.70;1.30;;;5.30;99.90;;;;;;5159814;27;20074;-72
2023/03/27 02:44:37;;;;;;;16.33;1.42;;;5.30;99.90;;;;;;5160356;27;20335;-72
2023/03/27 02:47:15;;;;;;;8.15;1.10;;;5.20;99.90;;;;;;5160367;27;20041;-72
2023/03/27 02:49:51;;;;;;;11.20;1.00;;;5.30;99.90;;;;;;5160308;27;20106;-72
2023/03/27 02:52:22;;;;;;;8.35;1.48;;;5.30;99.90;;;;;;5159648;27;20050;-72
2023/03/27 02:54:54;;;;;;;11.45;1.40;;;5.30;99.90;;;;;;5159868;27;20085;-72
2023/03/27 02:57:25;;;;;;;15.95;1.38;;;5.20;99.90;;;;;;5160145;27;20086;-72
2023/03/27 02:59:56;;;;;;;11.18;1.15;;;5.30;99.90;;;;;;5160079;27;20031;-72
2023/03/27 03:02:28;;;;;;;6.72;0.85;;;5.30;99.90;;;;;;5160066;27;20043;-72
2023/03/27 03:05:00;;;;;;;9.20;0.90;;;5.30;99.90;;;;;;5159989;27;20030;-72
2023/03/27 03:07:26;;;;;;;6.70;1.38;;;5.20;99.90;;;;;;5159839;27;20030;-72
2023/03/27 03:09:53;;;;;;;10.80;1.17;;;5.30;99.90;;;;;;5141546;27;20041;-72
2023/03/27 03:12:20;;;;;;;6.40;0.90;;;5.40;99.90;;;;;;5154852;27;20031;-73
2023/03/27 03:14:46;;;;;;;6.80;0.77;;;5.50;99.90;;;;;;5138511;27;20035;-73
2023/03/27 03:17:13;;;;;;;10.13;1.52;;;5.40;99.90;;;;;;5138105;27;20428;-73
2023/03/27 03:19:39;;;;;;;13.63;1.55;;;5.50;99.90;;;;;;5138909;27;20031;-73
2023/03/27 03:22:04;;;;;;;7.20;1.10;;;5.40;99.90;;;;;;5138182;27;20442;-73
2023/03/27 03:24:31;;;;;;;12.80;1.13;;;5.50;99.90;;;;;;5138855;27;20051;-72
2023/03/27 03:26:58;;;;;;;4.60;1.02;;;5.50;99.90;;;;;;5138849;27;20079;-72
2023/03/27 03:29:28;;;;;;;6.95;1.27;;;5.40;99.90;;;;;;5138507;27;20082;-72
2023/03/27 03:31:55;;;;;;;10.45;1.27;;;5.30;99.90;;;;;;5138735;27;20119;-73
2023/03/27 03:34:21;;;;;;;8.35;1.15;;;5.30;99.90;;;;;;5120526;27;20039;-72
2023/03/27 03:36:47;;;;;;;4.43;0.90;;;5.40;99.90;;;;;;5138630;27;20035;-72
2023/03/27 03:39:15;;;;;;;12.35;1.63;;;5.40;99.90;;;;;;5120172;27;20041;-72
2023/03/27 03:41:41;;;;;;;11.48;1.27;;;5.50;99.90;;;;;;5138523;27;20031;-72
2023/03/27 03:44:07;;;;;;;9.57;1.67;;;5.50;99.90;;;;;;5138479;27;20043;-72
2023/03/27 03:46:33;;;;;;;12.50;1.67;;;5.40;99.90;;;;;;5138470;27;20109;-72
2023/03/27 03:48:59;;;;;;;10.00;1.10;;;5.10;99.90;;;;;;5120019;27;20144;-72
2023/03/27 03:51:25;;;;;;;9.10;1.10;;;5.10;99.90;;;;;;5137593;27;20050;-72
2023/03/27 03:53:51;;;;;;;7.82;0.93;;;5.10;99.90;;;;;;5138196;27;20328;-72
2023/03/27 03:56:16;;;;;;;9.73;1.20;;;5.10;99.90;;;;;;5138257;27;20042;-72
2023/03/27 03:58:43;;;;;;;9.75;1.20;;;5.10;99.90;;;;;;5137879;27;20489;-73
2023/03/27 04:01:09;;;;;;;8.55;1.42;;;5.10;99.90;;;;;;5119804;27;20043;-72
2023/03/27 04:03:35;;;;;;;13.80;1.40;;;5.00;99.90;;;;;;5138170;27;20053;-72
2023/03/27 04:06:04;;;;;;;10.65;1.00;;;5.00;99.90;;;;;;5119737;27;20039;-72
2023/03/27 04:08:33;;;;;;;10.65;1.02;;;5.10;99.90;;;;;;5138095;27;20043;-72
2023/03/27 04:10:59;;;;;;;12.40;1.65;;;5.30;99.90;;;;;;5085875;27;20495;-72
2023/03/27 04:13:26;;;;;;;14.70;1.35;;;5.50;99.90;;;;;;5137712;27;20126;-72
2023/03/27 04:15:52;;;;;;;8.82;1.15;;;5.50;99.90;;;;;;5137966;27;20110;-72
2023/03/27 04:18:23;;;;;;;15.20;1.23;;;5.60;99.90;;;;;;5137974;27;20046;-72
2023/03/27 04:20:48;;;;;;;14.82;1.95;;;5.50;99.90;;;;;;5137564;27;20050;-73
2023/03/27 04:23:17;;;;;;;9.07;1.30;;;5.50;99.90;;;;;;5137899;27;20031;-72
2023/03/27 04:25:45;;;;;;;7.63;1.27;;;5.40;99.90;;;;;;5137810;27;20160;-72
2023/03/27 04:28:15;;;;;;;8.50;1.20;;;5.40;99.90;;;;;;5137032;27;20077;-72
2023/03/27 04:30:42;;;;;;;11.65;1.35;;;5.20;99.90;;;;;;5137885;27;20050;-72
2023/03/27 04:33:17;;;;;;;11.77;1.13;;;5.10;99.90;;;;;;5137740;28;20046;-72
2023/03/27 04:35:46;;;;;;;8.60;1.25;;;5.10;99.90;;;;;;5138035;28;20117;-72
2023/03/27 04:38:13;;;;;;;9.00;1.17;;;5.20;99.90;;;;;;5137710;28;20035;-72
2023/03/27 04:40:47;;;;;;;5.43;1.10;;;5.20;99.90;;;;;;5137757;28;20035;-72
2023/03/27 04:43:15;;;;;;;9.88;1.50;;;5.20;99.90;;;;;;5137740;28;20043;-72
2023/03/27 04:45:47;;;;;;;9.10;1.23;;;5.10;99.90;;;;;;5137694;28;20051;-72
2023/03/27 04:48:14;;;;;;;9.60;1.50;;;5.00;99.90;;;;;;5137672;28;20110;-72
2023/03/27 04:50:43;;;;;;;12.85;1.23;;;5.00;99.90;;;;;;5137657;28;20352;-76
2023/03/27 04:53:09;;;;;;;9.02;0.90;;;5.00;99.90;;;;;;5137524;28;20396;-72
2023/03/27 04:55:36;;;;;;;11.32;1.02;;;5.00;99.90;;;;;;5137282;28;20057;-72
2023/03/27 04:58:06;;;;;;;4.30;0.47;;;4.90;99.90;;;;;;5137543;28;20039;-72
2023/03/27 05:00:33;;;;;;;8.25;0.80;;;4.80;99.90;;;;;;5137538;28;20049;-73
2023/03/27 05:03:02;;;;;;;12.70;0.68;;;4.80;99.90;;;;;;5137552;28;20035;-72
2023/03/27 05:05:27;;;;;;;7.80;0.73;;;4.80;99.90;;;;;;5137206;28;20043;-73
2023/03/27 05:07:53;;;;;;;5.82;0.93;;;4.70;99.90;;;;;;5137503;28;20092;-72
2023/03/27 05:10:19;;;;;;;4.28;0.32;;;4.70;99.90;;;;;;5137196;28;20432;-72
2023/03/27 05:12:47;;;;;;;4.47;0.50;;;4.60;99.90;;;;;;5137461;28;20039;-72
2023/03/27 05:15:14;;;;;;;6.30;0.35;;;4.60;99.90;;;;;;5137337;28;20054;-72
2023/03/27 05:17:42;;;;;;;3.63;0.22;;;4.70;99.90;;;;;;5137385;28;20308;-72
2023/03/27 05:20:13;;;;;;;2.30;0.40;;;4.60;99.90;;;;;;5137335;28;20035;-72
2023/03/27 05:22:40;;;;;;;4.78;0.55;;;4.70;99.90;;;;;;5118615;28;20039;-72
2023/03/27 05:25:06;;;;;;;2.80;0.20;;;4.80;99.90;;;;;;5137354;28;20103;-72
2023/03/27 05:27:31;;;;;;;3.03;0.45;;;4.70;99.90;;;;;;5137591;28;20043;-72
2023/03/27 05:29:57;;;;;;;5.38;0.28;;;4.70;99.90;;;;;;5118870;28;20043;-73
2023/03/27 05:32:23;;;;;;;6.22;0.82;;;4.70;99.90;;;;;;5136945;28;20436;-72
2023/03/27 05:34:53;;;;;;;5.05;0.52;;;4.70;99.90;;;;;;5136869;28;20071;-72
2023/03/27 05:37:22;;;;;;;3.70;0.30;;;4.70;99.90;;;;;;5137254;28;20047;-72
2023/03/27 05:39:48;;;;;;;8.05;0.30;;;4.90;99.90;;;;;;5138104;27;20124;-72
2023/03/27 05:42:15;;;;;;;7.80;0.68;;;4.80;99.90;;;;;;5140874;27;20065;-72
2023/03/27 05:44:44;;;;;;;7.25;0.98;;;4.80;99.90;;;;;;5140802;27;20436;-72
2023/03/27 05:47:11;;;;;;;7.80;0.75;;;4.80;99.90;;;;;;5140777;27;20039;-72
2023/03/27 05:49:37;;;;;;;7.15;0.70;;;4.80;99.90;;;;;;5140792;27;20088;-72
2023/03/27 05:52:03;;;;;;;4.65;0.50;;;4.80;99.90;;;;;;5140298;27;20039;-72
2023/03/27 05:54:28;;;;;;;2.78;0.38;;;4.80;99.90;;;;;;5122168;27;20047;-72
2023/03/27 05:56:54;;;;;;;4.13;0.70;;;4.80;99.90;;;;;;5140635;27;20061;-72
2023/03/27 05:59:20;;;;;;;5.40;0.50;;;4.90;99.90;;;;;;5140522;27;20066;-72
2023/03/27 06:01:47;;;;;;;8.00;0.57;;;5.00;99.90;;;;;;5140525;27;20391;-72
2023/03/27 06:04:14;;;;;;;8.23;0.50;;;4.90;99.90;;;;;;5122208;27;20078;-72
2023/03/27 06:06:40;;;;;;;7.25;0.57;;;5.00;99.90;;;;;;5122217;27;20078;-72
2023/03/27 06:09:14;;;;;;;7.05;0.50;;;5.10;99.90;;;;;;5140358;27;20454;-72
2023/03/27 06:11:43;;;;;;;10.02;0.95;;;5.20;99.90;;;;;;5140505;27;20039;-72
2023/03/27 06:14:17;;;;;;;9.65;0.98;;;5.20;99.90;;;;;;5122122;27;20092;-72
2023/03/27 06:16:47;;;;;;;6.72;0.75;;;5.40;99.90;;;;;;5122000;27;20043;-72
2023/03/27 06:19:15;;;;;;;14.57;0.80;;;5.40;99.90;;;;;;5140230;27;20399;-72
2023/03/27 06:21:41;;;;;;;9.23;0.73;;;5.50;99.90;;;;;;5147765;27;20042;-72
2023/03/27 06:24:07;;;;;;;7.75;0.60;;;5.40;99.90;;;;;;5142878;27;20042;-72
2023/03/27 06:26:33;;;;;;;4.88;1.08;;;5.40;99.90;;;;;;5160761;27;20138;-72
2023/03/27 06:28:59;;;;;;;4.47;0.40;;;5.40;99.90;;;;;;5142488;27;20044;-72
2023/03/27 06:31:26;;;;;;;10.10;1.00;;;5.30;99.90;;;;;;5160711;27;20331;-72
2023/03/27 06:33:51;;;;;;;7.32;0.82;;;5.20;99.90;;;;;;5160539;27;20039;-72
2023/03/27 06:36:18;;;;;;;6.57;0.82;;;5.20;99.90;;;;;;5141924;27;20050;-72
2023/03/27 06:38:44;;;;;;;14.07;0.80;;;5.50;99.90;;;;;;5160173;27;20045;-72
2023/03/27 06:41:10;;;;;;;8.93;0.60;;;5.60;99.90;;;;;;5160448;27;20034;-72
2023/03/27 06:43:36;;;;;;;6.43;0.95;;;5.60;99.90;;;;;;5160439;27;20050;-72
2023/03/27 06:46:02;;;;;;;6.40;1.75;;;5.60;99.90;;;;;;5160425;27;20039;-72
2023/03/27 06:48:27;;;;;;;8.65;1.02;;;5.60;99.90;;;;;;5160305;27;20126;-72
2023/03/27 06:50:53;;;;;;;10.00;1.00;;;5.80;99.90;;;;;;5159172;27;20047;-72
2023/03/27 06:53:19;;;;;;;8.27;0.90;;;5.80;99.90;;;;;;5159755;27;20049;-72
2023/03/27 06:55:46;;;;;;;14.27;1.30;;;5.80;99.90;;;;;;5160025;27;20061;-72
2023/03/27 06:58:12;;;;;;;7.82;0.95;;;5.80;99.90;;;;;;5159811;27;20419;-72
2023/03/27 07:00:39;;;;;;;14.10;1.10;;;5.80;99.90;;;;;;5141541;27;20038;-72
2023/03/27 07:03:08;;;;;;;8.40;1.52;;;5.90;99.90;;;;;;5159795;27;20099;-72
2023/03/27 07:05:36;;;;;;;15.00;0.90;;;6.00;99.90;;;;;;5141526;27;20039;-72
2023/03/27 07:08:03;;;;;;;9.20;0.90;;;6.10;99.90;;;;;;5141374;27;20070;-72
2023/03/27 07:10:29;;;;;;;8.73;0.98;;;6.10;99.90;;;;;;5159594;27;20027;-72
2023/03/27 07:12:55;;;;;;;8.63;0.88;;;6.30;99.90;;;;;;5159300;27;20027;-72
2023/03/27 07:15:22;;;;;;;10.30;1.20;;;6.10;99.90;;;;;;5158770;27;20049;-72
2023/03/27 07:17:58;;;;;;;11.80;1.02;;;6.30;99.90;;;;;;5159082;27;20027;-72
2023/03/27 07:20:26;;;;;;;11.02;1.02;;;6.20;99.90;;;;;;5158753;27;20032;-71
2023/03/27 07:22:54;;;;;;;10.95;1.20;;;6.20;99.90;;;;;;5122807;27;20137;-72
2023/03/27 07:25:20;;;;;;;8.90;1.10;;;6.10;99.90;;;;;;5159657;27;20390;-72
2023/03/27 07:27:46;;;;;;;6.65;0.93;;;6.10;99.90;;;;;;5159273;27;20439;-72
2023/03/27 07:30:12;;;;;;;11.10;1.13;;;6.20;99.90;;;;;;5159501;27;20039;-72
2023/03/27 07:32:40;;;;;;;9.48;1.20;;;6.20;99.90;;;;;;5159478;27;20042;-68
2023/03/27 07:35:07;;;;;;;8.60;1.00;;;6.10;99.90;;;;;;5141061;27;20038;-67
2023/03/27 07:37:35;;;;;;;13.13;1.45;;;5.90;99.90;;;;;;5159373;27;20047;-67
2023/03/27 07:40:00;;;;;;;8.48;0.90;;;6.00;99.90;;;;;;5141101;27;20102;-66
2023/03/27 07:42:27;;;;;;;9.68;0.98;;;6.10;99.90;;;;;;5140887;27;20420;-66
2023/03/27 07:44:52;;;;;;;12.85;1.10;;;6.10;99.90;;;;;;5159213;27;20336;-67
2023/03/27 07:47:18;;;;;;;10.38;0.70;;;6.30;99.90;;;;;;5159132;27;20061;-67
2023/03/27 07:49:44;;;;;;;6.20;1.10;;;6.20;99.90;;;;;;5158877;27;20443;-66
2023/03/27 07:52:10;;;;;;;16.88;1.15;;;6.10;99.90;;;;;;5158744;27;20078;-67
2023/03/27 07:54:35;;;;;;;8.60;0.70;;;5.80;99.90;;;;;;5158718;27;20047;-66
2023/03/27 07:57:02;;;;;;;5.18;0.70;;;5.70;99.90;;;;;;5159046;27;20339;-67
2023/03/27 07:59:28;;;;;;;8.73;1.02;;;5.60;99.90;;;;;;5158952;27;20080;-67
2023/03/27 08:01:54;;;;;;;7.38;0.77;;;5.60;99.90;;;;;;5158949;27;20117;-67
2023/03/27 08:04:20;;;;;;;3.88;0.80;;;5.50;99.90;;;;;;5158848;27;20142;-67
2023/03/27 08:06:45;;;;;;;6.03;1.00;;;5.30;99.90;;;;;;5158815;27;20045;-68
2023/03/27 08:09:11;;;;;;;2.03;0.57;;;5.40;99.90;;;;;;5158858;27;20391;-70
2023/03/27 08:11:39;;;;;;;6.10;0.70;;;5.50;99.90;;;;;;5158778;27;20039;-68
2023/03/27 08:14:06;;;;;;;4.80;0.68;;;5.50;99.90;;;;;;5158679;27;20034;-73
2023/03/27 08:16:31;;;;;;;4.03;0.70;;;5.70;99.90;;;;;;5158729;27;20045;-68
2023/03/27 08:18:57;;;;;;;3.53;0.35;;;5.80;99.90;;;;;;5158730;27;20038;-68
2023/03/27 08:21:23;;;;;;;3.60;0.75;;;5.80;99.90;;;;;;5158257;27;20034;-68
2023/03/27 08:23:49;;;;;;;8.18;0.73;;;6.00;99.90;;;;;;5158625;27;20030;-68
2023/03/27 08:26:15;;;;;;;6.97;0.65;;;6.00;99.90;;;;;;5158711;27;20091;-68
2023/03/27 08:28:41;;;;;;;8.65;0.90;;;6.00;99.90;;;;;;5139927;27;20431;-68
2023/03/27 08:31:13;;;;;;;3.38;0.50;;;6.20;99.90;;;;;;5158356;27;20042;-68
2023/03/27 08:33:40;;;;;;;6.72;0.70;;;6.30;99.90;;;;;;5158475;27;20034;-68
2023/03/27 08:36:08;;;;;;;5.30;0.98;;;6.40;99.90;;;;;;5158524;27;20043;-68
2023/03/27 08:38:34;;;;;;;6.82;0.70;;;6.60;99.90;;;;;;5158207;27;20042;-68
2023/03/27 08:41:02;;;;;;;10.68;0.93;;;6.70;99.90;;;;;;5158494;27;20363;-68
2023/03/27 08:43:35;;;;;;;6.63;0.80;;;6.60;99.90;;;;;;5158447;27;20043;-69
2023/03/27 08:46:24;;;;;;;4.45;0.80;;;6.70;99.90;;;;;;5158459;27;20045;-69
2023/03/27 08:49:07;;;;;;;6.78;0.80;;;6.80;99.90;;;;;;5158450;27;20045;-69
2023/03/27 08:51:37;;;;;;;8.00;0.68;;;6.90;99.90;;;;;;5158004;27;20211;-69
2023/03/27 08:54:24;;;;;;;4.90;0.80;;;6.90;99.90;;;;;;5157994;27;20044;-69
2023/03/27 08:56:51;;;;;;;4.75;0.63;;;6.90;99.90;;;;;;5139845;27;20487;-69
2023/03/27 08:59:19;;;;;;;5.18;0.90;;;6.90;99.90;;;;;;5158261;27;20046;-69
2023/03/27 09:02:07;;;;;;;6.18;0.88;;;7.10;99.90;;;;;;5157943;27;20035;-69
2023/03/27 09:04:44;;;;;;;5.78;0.85;;;7.30;99.90;;;;;;5157934;27;20438;-69
2023/03/27 09:07:17;;;;;;;13.68;1.42;;;7.20;99.90;;;;;;5158249;27;20047;-70
2023/03/27 09:10:09;;;;;;;14.77;1.10;;;7.30;99.90;;;;;;5158338;27;20044;-69
2023/03/27 09:13:00;;;;;;;7.57;0.70;;;7.50;99.90;;;;;;5152989;27;20078;-69
2023/03/27 09:15:33;;;;;;;4.43;0.55;;;7.40;99.90;;;;;;5160163;27;20034;-69
2023/03/27 09:18:20;;;;;;;3.63;0.55;;;7.10;99.90;;;;;;5161844;27;20038;-69
2023/03/27 09:20:51;;;;;;;;;;;7.10;99.90;;;;;;5162652;27;20042;-69
2023/03/27 09:23:44;;;;;;;3.92;0.30;;;7.20;99.90;;;;;;5161693;27;19936;-69
2023/03/27 09:26:17;;;;;;;6.78;0.68;;;7.00;99.90;;;;;;5151405;27;20046;-69
2023/03/27 09:28:50;;;;;;;7.97;0.55;;;7.10;99.90;;;;;;5161980;27;20102;-71
2023/03/27 09:31:32;;;;;;;6.03;0.80;;;7.30;99.90;;;;;;5143611;27;20031;-69
2023/03/27 09:34:01;;;;;;;7.88;0.70;;;7.50;99.90;;;;;;5161721;27;20038;-69
2023/03/27 09:36:27;;;;;;;2.70;0.38;;;7.50;99.90;;;;;;5161461;27;20125;-67
2023/03/27 09:39:01;;;;;;;2.13;0.50;;;7.30;99.90;;;;;;5143496;27;20073;-68
2023/03/27 09:41:48;;;;;;;8.05;0.73;;;7.30;99.90;;;;;;5143013;27;20066;-68
2023/03/27 09:44:19;;;;;;;;;;;7.00;99.90;;;;;;5162151;27;20048;-68
2023/03/27 09:46:48;;;;;;;5.28;0.45;;;7.20;99.90;;;;;;5161310;27;20399;-68
2023/03/27 09:49:19;;;;;;;6.40;0.40;;;7.70;99.90;;;;;;5142884;27;20414;-68
2023/03/27 09:51:57;;;;;;;9.63;0.50;;;8.00;99.90;;;;;;5161155;27;20305;-68
2023/03/27 09:54:27;;;;;;;4.70;0.32;;;7.90;99.90;;;;;;5161130;27;20134;-68
2023/03/27 09:57:02;;;;;;;10.25;1.45;;;7.90;99.90;;;;;;5142771;27;20412;-68
2023/03/27 09:59:34;;;;;;;1.15;0.17;;;8.00;99.90;;;;;;5161409;27;20323;-68
2023/03/27 10:02:20;;;;;;;11.93;1.10;;;7.80;99.90;;;;;;5161097;27;20492;-68
2023/03/27 10:05:11;;;;;;;4.93;1.27;;;7.90;99.90;;;;;;5161271;27;20089;-68
2023/03/27 10:07:38;;;;;;;3.30;0.50;;;8.00;99.90;;;;;;5161025;27;20034;-69
2023/03/27 10:10:10;;;;;;;4.45;0.45;;;8.20;99.90;;;;;;5161132;27;20077;-67
2023/03/27 10:12:37;;;;;;;4.63;0.50;;;8.40;99.90;;;;;;5161100;27;20058;-68
2023/03/27 10:15:37;;;;;;;2.25;0.40;;;8.50;99.90;;;;;;5160790;27;20049;-69
2023/03/27 10:18:23;;;;;;;8.45;0.77;;;8.20;99.90;;;;;;5160691;27;20415;-68
2023/03/27 10:20:51;;;;;;;8.18;0.77;;;8.00;99.90;;;;;;5142485;27;20042;-69
2023/03/27 10:23:25;;;;;;;6.03;0.63;;;8.40;99.90;;;;;;5160502;27;20083;-69
2023/03/27 10:25:56;;;;;;;6.95;0.50;;;8.90;99.90;;;;;;5141517;27;20439;-69
2023/03/27 10:28:34;;;;;;;6.97;0.52;;;8.70;99.90;;;;;;5160161;27;20042;-68
2023/03/27 10:31:07;;;;;;;8.07;0.50;;;8.70;99.90;;;;;;5142209;27;20074;-69
2023/03/27 10:33:38;;;;;;;3.40;0.50;;;8.50;99.90;;;;;;5160648;27;20106;-69
2023/03/27 10:36:07;;;;;;;6.20;0.50;;;8.40;99.90;;;;;;5142108;27;20117;-69
2023/03/27 10:38:35;;;;;;;4.00;0.50;;;8.10;99.90;;;;;;5141952;27;20387;-67
2023/03/27 10:41:06;;;;;;;5.30;0.52;;;8.00;99.90;;;;;;5160501;27;20073;-67
2023/03/27 10:43:36;;;;;;;4.57;0.60;;;8.30;99.90;;;;;;5160209;27;20427;-68
2023/03/27 10:46:05;;;;;;;4.68;0.50;;;8.40;99.90;;;;;;5142202;27;20109;-69
2023/03/27 10:48:56;;;;;;;5.32;0.55;;;8.40;99.90;;;;;;5124555;27;20089;-68
2023/03/27 10:51:43;;;;;;;6.78;0.70;;;8.90;99.90;;;;;;5159982;27;20037;-68
2023/03/27 10:54:35;;;;;;;4.38;0.52;;;9.10;99.90;;;;;;5142006;27;20043;-70
2023/03/27 10:57:18;;;;;;;4.55;0.50;;;9.30;99.90;;;;;;5159928;27;20335;-69
2023/03/27 10:59:56;;;;;;;4.43;0.50;;;9.50;99.90;;;;;;5160190;27;20042;-68
2023/03/27 11:02:31;;;;;;;5.20;0.50;;;9.70;99.90;;;;;;5141447;27;20043;-69
2023/03/27 11:05:11;;;;;;;4.30;0.38;;;9.50;99.90;;;;;;5159826;27;20046;-68
2023/03/27 11:07:55;;;;;;;4.57;0.70;;;9.60;99.90;;;;;;5160082;27;20106;-69
2023/03/27 11:10:43;;;;;;;3.70;0.47;;;10.10;99.90;;;;;;5159984;27;20044;-69
2023/03/27 11:13:25;;;;;;;9.55;0.98;;;10.20;99.90;;;;;;5159573;27;20046;-68
2023/03/27 11:16:24;;;;;;;5.82;0.50;;;10.20;99.90;;;;;;5159875;27;20095;-69
2023/03/27 11:19:14;;;;;;;5.40;0.50;;;9.80;99.90;;;;;;5159461;27;20118;-68
2023/03/27 11:21:48;;;;;;;5.25;0.75;;;9.80;99.90;;;;;;5159363;27;20042;-68
2023/03/27 11:24:27;;;;;;;4.80;0.60;;;9.60;99.90;;;;;;5159686;27;20391;-72
2023/03/27 11:27:09;;;;;;;5.78;0.68;;;9.40;99.90;;;;;;5159686;27;20097;-69
2023/03/27 11:29:43;;;;;;;7.75;0.75;;;9.60;99.90;;;;;;5159616;27;20034;-73
2023/03/27 11:32:41;;;;;;;5.43;0.60;;;9.50;99.90;;;;;;5159447;27;20070;-67
2023/03/27 11:35:12;;;;;;;7.45;0.60;;;8.50;99.90;;;;;;5152100;27;20046;-70
2023/03/27 11:37:44;;;;;;;8.40;0.90;;;7.70;99.90;;;;;;5159203;27;20038;-73
2023/03/27 11:40:22;;;;;;;5.55;0.63;;;7.20;99.90;;;;;;5141030;27;20126;-70
2023/03/27 11:42:49;;;;;;;3.58;0.57;;;6.80;99.90;;;;;;5123604;27;20416;-71
2023/03/27 11:45:20;;;;;;;5.72;0.60;;;6.70;99.90;;;;;;5141180;27;20049;-68
2023/03/27 11:48:00;;;;;;;6.60;0.50;;;6.80;99.90;;;;;;5159258;27;20047;-69
2023/03/27 11:50:53;;;;;;;6.43;1.10;;;7.30;99.90;;;;;;5140611;27;20483;-69
2023/03/27 11:53:38;;;;;;;8.38;1.13;;;8.00;99.90;;;;;;5123219;27;20046;-69
2023/03/27 11:56:13;;;;;;;6.47;1.02;;;8.80;99.90;;;;;;5158909;27;20086;-69
2023/03/27 11:58:53;;;;;;;11.25;0.77;;;9.40;99.90;;;;;;5158721;27;20053;-69
2023/03/27 12:01:31;;;;;;;4.40;0.55;;;9.70;99.90;;;;;;5159040;27;20329;-69
2023/03/27 12:04:05;;;;;;;6.72;0.88;;;9.60;99.90;;;;;;5140669;27;20042;-69
2023/03/27 12:06:43;;;;;;;12.20;0.88;;;9.50;99.90;;;;;;5140398;27;20034;-69
2023/03/27 12:09:17;;;;;;;6.60;1.00;;;9.20;99.90;;;;;;5158577;27;20470;-69
2023/03/27 12:12:12;;;;;;;8.88;0.70;;;8.80;99.90;;;;;;5158563;27;20046;-68
2023/03/27 12:14:42;;;;;;;4.65;0.50;;;9.00;99.90;;;;;;5130728;27;20127;-68
2023/03/27 12:17:31;;;;;;;4.88;0.50;;;9.00;99.90;;;;;;5158510;27;20041;-68
2023/03/27 12:20:26;;;;;;;5.88;0.90;;;9.40;99.90;;;;;;5158746;27;20045;-68
2023/03/27 12:23:08;;;;;;;4.15;0.60;;;9.70;99.90;;;;;;5158522;27;20039;-70
2023/03/27 12:25:40;;;;;;;7.53;1.38;;;9.90;99.90;;;;;;5158690;27;20078;-69
2023/03/27 12:28:23;;;;;;;7.43;1.00;;;10.00;99.90;;;;;;5158641;27;20081;-68
2023/03/27 12:31:05;;;;;;;7.10;0.73;;;9.70;99.90;;;;;;5158310;27;20046;-68
2023/03/27 12:33:36;;;;;;;6.10;0.80;;;9.10;99.90;;;;;;5158491;27;20085;-68
2023/03/27 12:36:08;;;;;;;6.38;0.50;;;8.80;99.90;;;;;;5158209;27;20039;-69
2023/03/27 12:38:40;;;;;;;6.18;0.88;;;8.70;99.90;;;;;;5158497;27;20041;-67
2023/03/27 12:41:18;;;;;;;5.57;0.55;;;9.10;99.90;;;;;;5122754;27;20053;-69
2023/03/27 12:43:46;;;;;;;3.83;0.32;;;9.60;99.90;;;;;;5140237;27;20323;-69
2023/03/27 12:46:24;;;;;;;6.35;0.65;;;10.10;99.90;;;;;;5158154;27;20089;-69
2023/03/27 12:49:00;;;;;;;15.30;2.15;;;10.90;99.90;;;;;;5158466;27;20031;-73
2023/03/27 12:51:50;;;;;;;6.45;0.95;;;11.10;99.90;;;;;;5162104;27;20144;-69
2023/03/27 12:54:22;;;;;;;4.40;0.85;;;9.90;99.90;;;;;;5161482;27;20425;-68
2023/03/27 12:57:19;;;;;;;7.85;0.77;;;9.70;99.90;;;;;;5156886;27;20046;-69
2023/03/27 12:59:57;;;;;;;7.47;0.80;;;9.80;99.90;;;;;;5142172;27;20322;-69
2023/03/27 13:02:26;;;;;;;8.52;1.17;;;10.10;99.90;;;;;;5151258;27;20039;-70
2023/03/27 13:04:59;;;;;;;5.53;0.55;;;10.20;99.90;;;;;;5148662;27;20043;-67
2023/03/27 13:08:00;;;;;;;3.15;0.40;;;10.60;99.90;;;;;;5144367;27;20122;-69
2023/03/27 13:10:48;;;;;;;4.60;0.50;;;10.30;99.90;;;;;;5140848;27;20039;-67
2023/03/27 13:13:41;;;;;;;9.60;0.90;;;10.30;99.90;;;;;;5141532;27;20039;-67
2023/03/27 13:16:10;;;;;;;9.55;0.93;;;10.20;99.90;;;;;;5141891;27;20049;-67
2023/03/27 13:18:48;;;;;;;7.05;0.93;;;10.00;99.90;;;;;;5141435;27;20043;-67
2023/03/27 13:21:20;;;;;;;8.18;0.88;;;10.00;99.90;;;;;;5141384;27;20091;-68
2023/03/27 13:23:55;;;;;;;6.45;0.85;;;9.90;99.90;;;;;;5123187;27;20043;-68